Time;durP1;ratioP1;P1;durP2;ratioP2;P2;SDS_P1;SDS_P2;PMS_P1;PMS_P2;Temp;Humidity;BMP_temperature;BMP_pressure;BME280_temperature;BME280_humidity;BME280_pressure;Samples;Min_cycle;Max_cycle;Signal;HPM_P1;HPM_P2
2022/04/08 00:00:41;;;;;;;2.70;1.40;;;;;;;9.37;73.83;97570.28;88094;1277;95870;-72
2022/04/08 00:02:53;;;;;;;3.30;1.60;;;;;;;9.37;73.88;97559.08;88131;1276;80440;-71
2022/04/08 00:05:01;;;;;;;2.90;1.50;;;;;;;9.40;73.87;97558.73;88134;1276;79585;-75
2022/04/08 00:07:10;;;;;;;2.90;1.50;;;;;;;9.46;73.82;97562.63;88107;1276;99008;-75
2022/04/08 00:09:23;;;;;;;3.50;1.20;;;;;;;9.47;73.96;97564.21;88137;1276;88791;-75
2022/04/08 00:11:32;;;;;;;3.30;1.50;;;;;;;9.50;73.77;97570.88;88138;1276;94993;-74
2022/04/08 00:13:41;;;;;;;4.00;1.80;;;;;;;9.47;73.94;97571.77;88147;1276;77474;-74
2022/04/08 00:15:51;;;;;;;4.00;1.80;;;;;;;9.45;73.69;97572.65;88142;1276;81119;-76
2022/04/08 00:18:00;;;;;;;3.50;1.60;;;;;;;9.42;73.79;97573.36;88069;1277;98993;-73
2022/04/08 00:20:11;;;;;;;3.80;1.60;;;;;;;9.40;73.75;97583.95;88126;1276;88848;-72
2022/04/08 00:22:25;;;;;;;4.20;1.50;;;;;;;9.36;73.75;97581.15;88132;1276;95386;-72
2022/04/08 00:24:34;;;;;;;3.60;1.60;;;;;;;9.33;73.67;97578.64;88176;1276;81619;-72
2022/04/08 00:26:47;;;;;;;2.80;1.40;;;;;;;9.31;73.77;97578.56;88154;1276;82008;-71
2022/04/08 00:28:56;;;;;;;4.00;1.50;;;;;;;9.31;73.71;97574.24;88144;1276;99216;-71
2022/04/08 00:31:08;;;;;;;4.40;1.90;;;;;;;9.30;73.97;97558.50;88072;1277;87488;-72
2022/04/08 00:33:17;;;;;;;3.10;1.60;;;;;;;9.30;74.03;97554.30;88110;1276;95892;-71
2022/04/08 00:35:27;;;;;;;4.50;1.80;;;;;;;9.30;73.91;97551.02;88136;1276;79569;-71
2022/04/08 00:37:40;;;;;;;3.20;1.50;;;;;;;9.34;73.81;97542.08;88173;1276;82666;-72
2022/04/08 00:39:49;;;;;;;3.70;1.60;;;;;;;9.34;73.77;97534.79;88183;1276;100478;-75
2022/04/08 00:42:02;;;;;;;4.00;1.50;;;;;;;9.32;73.88;97536.86;88129;1276;87234;-74
2022/04/08 00:44:12;;;;;;;3.50;1.90;;;;;;;9.27;73.59;97538.48;88148;1276;92598;-72
2022/04/08 00:46:21;;;;;;;3.10;1.30;;;;;;;9.23;73.66;97543.13;88142;1276;82335;-71
2022/04/08 00:48:30;;;;;;;2.60;1.50;;;;;;;9.20;73.60;97544.73;88146;1276;81832;-72
2022/04/08 00:50:41;;;;;;;4.20;1.70;;;;;;;9.17;73.78;97546.29;88150;1276;100024;-72
2022/04/08 00:52:53;;;;;;;3.30;1.30;;;;;;;9.16;73.70;97544.76;88060;1277;86837;-72
2022/04/08 00:55:04;;;;;;;3.50;1.50;;;;;;;9.15;73.83;97550.27;88123;1276;94791;-71
2022/04/08 00:57:14;;;;;;;3.10;1.40;;;;;;;9.17;73.79;97552.56;88144;1276;80047;-73
2022/04/08 00:59:23;;;;;;;2.80;1.40;;;;;;;9.20;73.72;97545.71;88125;1276;80595;-75
2022/04/08 01:01:34;;;;;;;2.30;1.30;;;;;;;9.24;73.60;97552.66;88135;1276;98300;-73
2022/04/08 01:03:46;;;;;;;4.50;1.60;;;;;;;9.26;73.61;97548.86;88146;1276;89927;-75
2022/04/08 01:05:55;;;;;;;2.80;1.30;;;;;;;9.27;73.57;97548.55;88133;1276;93873;-75
2022/04/08 01:08:06;;;;;;;3.00;1.50;;;;;;;9.23;73.61;97550.49;88151;1277;79574;-75
2022/04/08 01:10:18;;;;;;;2.70;1.50;;;;;;;9.20;73.56;97554.02;88170;1276;81421;-74
2022/04/08 01:12:27;;;;;;;4.10;1.40;;;;;;;9.19;73.51;97560.80;88118;1276;99369;-74
2022/04/08 01:14:42;;;;;;;2.10;1.10;;;;;;;9.17;73.58;97554.42;88176;1276;87915;-75
2022/04/08 01:16:55;;;;;;;4.20;1.40;;;;;;;9.16;73.63;97566.09;88149;1276;95788;-74
2022/04/08 01:19:04;;;;;;;2.60;1.20;;;;;;;9.15;73.63;97571.88;88173;1276;80161;-74
2022/04/08 01:21:14;;;;;;;2.70;1.30;;;;;;;9.15;73.73;97574.30;88156;1276;82870;-75
2022/04/08 01:23:24;;;;;;;3.00;1.30;;;;;;;9.18;73.68;97576.34;88147;1276;99622;-74
2022/04/08 01:25:33;;;;;;;3.00;1.40;;;;;;;9.21;73.79;97583.70;88133;1276;87329;-73
2022/04/08 01:27:43;;;;;;;3.60;1.30;;;;;;;9.23;73.60;97586.27;88145;1276;93840;-74
2022/04/08 01:29:52;;;;;;;2.70;1.20;;;;;;;9.19;73.49;97587.39;88137;1276;79346;-74
2022/04/08 01:32:05;;;;;;;3.30;1.40;;;;;;;9.13;73.65;97596.14;88113;1277;83049;-74
2022/04/08 01:34:14;;;;;;;2.50;1.20;;;;;;;9.07;73.74;97592.87;88149;1276;99200;-76
2022/04/08 01:36:23;;;;;;;3.40;1.40;;;;;;;9.03;73.65;97594.59;88153;1276;89167;-76
2022/04/08 01:38:34;;;;;;;2.50;1.20;;;;;;;9.03;73.63;97599.04;88134;1276;93647;-75
2022/04/08 01:40:43;;;;;;;4.20;1.20;;;;;;;9.04;73.53;97602.27;88104;1277;80201;-77
2022/04/08 01:42:53;;;;;;;3.30;1.20;;;;;;;9.07;73.61;97607.75;88132;1276;82250;-76
2022/04/08 01:45:02;;;;;;;3.00;1.70;;;;;;;9.07;73.72;97609.80;88130;1276;98820;-73
2022/04/08 01:47:15;;;;;;;2.60;1.60;;;;;;;9.09;73.48;97609.71;88133;1276;88853;-76
2022/04/08 01:49:24;;;;;;;3.30;1.50;;;;;;;9.10;73.45;97614.52;88161;1276;93140;-76
2022/04/08 01:51:34;;;;;;;3.80;1.50;;;;;;;9.11;73.32;97622.19;88112;1276;79045;-75
2022/04/08 01:53:46;;;;;;;5.70;1.70;;;;;;;9.08;73.26;97622.88;88120;1276;80072;-75
2022/04/08 01:55:55;;;;;;;3.00;1.40;;;;;;;9.07;73.15;97625.36;88094;1277;98762;-75
2022/04/08 01:58:04;;;;;;;2.60;1.40;;;;;;;9.01;73.29;97625.76;88084;1276;89833;-74
2022/04/08 02:00:18;;;;;;;4.50;1.80;;;;;;;8.94;73.16;97628.40;88111;1276;95325;-75
2022/04/08 02:02:27;;;;;;;3.40;1.50;;;;;;;8.92;73.10;97629.73;88130;1276;81190;-74
2022/04/08 02:04:36;;;;;;;3.00;1.40;;;;;;;8.91;72.89;97632.23;88127;1276;81533;-75
2022/04/08 02:06:46;;;;;;;3.40;1.40;;;;;;;8.89;72.60;97637.90;88133;1275;98432;-76
2022/04/08 02:08:55;;;;;;;3.40;1.60;;;;;;;8.89;72.42;97634.04;88151;1276;88025;-74
2022/04/08 02:11:04;;;;;;;4.30;1.70;;;;;;;8.88;72.30;97635.80;88092;1277;94252;-73
2022/04/08 02:13:13;;;;;;;2.60;1.40;;;;;;;8.88;71.94;97633.15;88114;1276;80022;-75
2022/04/08 02:15:32;;;;;;;4.50;1.80;;;;;;;8.84;71.69;97639.13;88163;1276;80215;-74
2022/04/08 02:17:44;;;;;;;4.40;1.50;;;;;;;8.81;71.37;97640.91;88137;1276;99586;-75
2022/04/08 02:19:53;;;;;;;4.20;1.50;;;;;;;8.77;71.13;97641.80;88140;1276;88725;-76
2022/04/08 02:22:05;;;;;;;4.90;1.50;;;;;;;8.71;70.84;97640.59;88101;1276;94621;-76
2022/04/08 02:24:15;;;;;;;3.80;1.40;;;;;;;8.69;70.50;97648.95;88092;1276;78505;-76
2022/04/08 02:26:23;;;;;;;5.10;1.50;;;;;;;8.66;70.55;97651.48;88100;1276;82846;-74
2022/04/08 02:28:42;;;;;;;3.50;1.40;;;;;;;8.63;70.10;97649.60;88124;1276;98123;-74
2022/04/08 02:31:19;;;;;;;5.90;2.20;;;;;;;8.60;69.86;97651.55;88120;1277;89083;-73
2022/04/08 02:33:41;;;;;;;3.70;1.30;;;;;;;8.56;70.02;97656.16;88127;1277;93480;-75
2022/04/08 02:35:58;;;;;;;2.50;1.20;;;;;;;8.53;69.79;97657.13;88087;1277;80472;-73
2022/04/08 02:38:09;;;;;;;3.50;1.50;;;;;;;8.52;69.96;97661.95;88111;1277;80327;-74
2022/04/08 02:40:18;;;;;;;3.90;1.20;;;;;;;8.51;69.92;97654.40;88041;1277;96591;-74
2022/04/08 02:42:30;;;;;;;5.00;1.40;;;;;;;8.50;69.98;97657.17;88103;1277;89843;-73
2022/04/08 02:44:39;;;;;;;2.30;1.40;;;;;;;8.47;70.03;97664.08;88115;1277;95404;-76
2022/04/08 02:46:51;;;;;;;3.40;1.40;;;;;;;8.45;70.06;97663.55;88097;1277;78281;-75
2022/04/08 02:49:01;;;;;;;4.30;1.70;;;;;;;8.46;69.99;97664.23;88135;1277;81543;-73
2022/04/08 02:51:10;;;;;;;3.20;1.30;;;;;;;8.45;69.99;97666.14;88130;1277;99556;-73
2022/04/08 02:53:19;;;;;;;3.10;1.10;;;;;;;8.45;69.96;97670.50;88087;1277;88060;-76
2022/04/08 02:55:28;;;;;;;3.90;1.50;;;;;;;8.44;69.94;97670.10;88105;1277;94054;-76
2022/04/08 02:57:46;;;;;;;4.60;1.40;;;;;;;8.44;69.90;97674.98;88089;1276;80518;-77
2022/04/08 02:59:59;;;;;;;5.90;1.30;;;;;;;8.41;69.91;97680.42;88118;1276;82110;-73
2022/04/08 03:02:09;;;;;;;2.50;1.30;;;;;;;8.40;69.68;97674.45;88150;1276;98284;-73
2022/04/08 03:04:18;;;;;;;3.20;1.30;;;;;;;8.36;69.85;97672.96;88134;1276;88852;-74
2022/04/08 03:06:31;;;;;;;5.90;1.50;;;;;;;8.32;70.00;97670.52;88078;1276;93166;-75
2022/04/08 03:08:40;;;;;;;4.30;1.10;;;;;;;8.29;69.94;97673.70;88101;1276;82221;-76
2022/04/08 03:10:49;;;;;;;2.90;1.00;;;;;;;8.27;69.78;97671.63;87872;1276;313894;-77
2022/04/08 03:12:59;;;;;;;3.50;1.10;;;;;;;8.26;69.75;97677.39;88058;1277;99678;-74
2022/04/08 03:15:11;;;;;;;5.60;1.10;;;;;;;8.26;69.65;97677.77;88103;1277;88007;-75
2022/04/08 03:17:20;;;;;;;3.60;1.20;;;;;;;8.22;69.79;97677.05;88155;1276;93670;-75
2022/04/08 03:19:33;;;;;;;4.90;1.50;;;;;;;8.19;69.72;97676.08;88144;1276;79468;-73
2022/04/08 03:21:42;;;;;;;4.70;1.60;;;;;;;8.19;69.75;97682.42;88164;1276;81313;-74
2022/04/08 03:23:51;;;;;;;4.50;1.40;;;;;;;8.17;69.63;97686.48;88182;1276;98856;-76
2022/04/08 03:26:04;;;;;;;4.20;1.20;;;;;;;8.16;69.69;97685.46;88141;1276;86967;-76
2022/04/08 03:28:14;;;;;;;4.30;1.20;;;;;;;8.14;69.53;97683.35;88076;1277;95664;-75
2022/04/08 03:30:27;;;;;;;6.70;1.60;;;;;;;8.13;69.43;97686.44;88133;1276;78127;-77
2022/04/08 03:32:39;;;;;;;5.20;0.90;;;;;;;8.10;69.49;97688.63;88140;1276;82708;-75
2022/04/08 03:34:57;;;;;;;2.30;1.10;;;;;;;8.07;69.41;97686.27;88132;1276;99162;-74
2022/04/08 03:37:07;;;;;;;4.60;1.60;;;;;;;8.05;69.26;97687.55;88156;1276;87720;-73
2022/04/08 03:39:20;;;;;;;3.60;1.10;;;;;;;8.04;69.46;97688.45;88132;1276;95146;-76
2022/04/08 03:41:29;;;;;;;5.10;1.20;;;;;;;8.05;69.39;97687.14;88125;1276;82645;-76
2022/04/08 03:43:38;;;;;;;5.20;1.50;;;;;;;8.11;69.44;97688.64;88162;1276;84056;-72
2022/04/08 03:45:47;;;;;;;5.20;1.60;;;;;;;8.16;69.24;97687.98;88156;1276;97929;-74
2022/04/08 03:48:00;;;;;;;4.30;1.40;;;;;;;8.18;69.16;97690.08;88144;1276;87709;-75
2022/04/08 03:50:11;;;;;;;5.90;1.70;;;;;;;8.18;69.20;97692.92;88147;1276;94465;-74
2022/04/08 03:52:20;;;;;;;4.10;1.30;;;;;;;8.16;68.73;97689.61;88118;1276;80890;-75
2022/04/08 03:54:30;;;;;;;3.70;1.30;;;;;;;8.10;68.73;97689.86;88180;1276;82957;-75
2022/04/08 03:56:41;;;;;;;4.10;1.60;;;;;;;8.04;68.44;97693.20;88125;1276;98584;-75
2022/04/08 03:58:50;;;;;;;4.40;1.90;;;;;;;7.98;68.42;97695.28;88168;1276;88153;-75
2022/04/08 04:01:03;;;;;;;2.90;1.10;;;;;;;7.91;68.31;97700.84;88146;1276;94707;-76
2022/04/08 04:03:12;;;;;;;4.70;1.40;;;;;;;7.89;68.27;97704.89;88140;1276;77915;-75
2022/04/08 04:05:21;;;;;;;5.10;1.50;;;;;;;7.87;68.26;97711.77;88142;1276;80676;-76
2022/04/08 04:07:31;;;;;;;4.00;1.30;;;;;;;7.83;68.11;97716.09;88147;1276;98478;-76
2022/04/08 04:09:40;;;;;;;4.50;1.40;;;;;;;7.78;68.20;97717.66;88151;1276;89376;-75
2022/04/08 04:11:53;;;;;;;5.70;2.00;;;;;;;7.69;68.08;97716.83;88120;1275;93340;-76
2022/04/08 04:14:03;;;;;;;4.90;1.70;;;;;;;7.60;68.30;97719.82;88053;1277;84026;-76
2022/04/08 04:16:12;;;;;;;5.90;1.50;;;;;;;7.54;68.43;97727.41;88138;1276;82967;-76
2022/04/08 04:18:21;;;;;;;4.60;1.30;;;;;;;7.53;68.54;97732.42;88121;1276;99785;-75
2022/04/08 04:20:30;;;;;;;6.60;1.90;;;;;;;7.57;68.72;97729.24;88126;1276;89526;-74
2022/04/08 04:22:42;;;;;;;5.30;1.60;;;;;;;7.63;68.67;97733.23;88154;1276;93555;-74
2022/04/08 04:24:52;;;;;;;5.60;1.50;;;;;;;7.66;68.59;97732.84;88132;1276;78199;-75
2022/04/08 04:27:01;;;;;;;6.10;1.40;;;;;;;7.69;68.72;97732.73;88164;1276;82501;-77
2022/04/08 04:29:18;;;;;;;5.20;1.30;;;;;;;7.71;68.69;97735.43;88097;1277;99101;-76
2022/04/08 04:31:27;;;;;;;5.60;1.30;;;;;;;7.72;68.70;97743.66;88149;1276;88317;-77
2022/04/08 04:33:36;;;;;;;4.60;1.30;;;;;;;7.71;68.68;97739.40;88146;1276;95206;-73
2022/04/08 04:35:49;;;;;;;5.30;2.00;;;;;;;7.70;68.75;97740.98;88139;1276;78536;-73
2022/04/08 04:37:59;;;;;;;3.40;1.60;;;;;;;7.72;68.67;97742.85;88077;1277;82136;-75
2022/04/08 04:40:10;;;;;;;3.90;1.70;;;;;;;7.71;68.65;97746.27;88128;1276;98743;-74
2022/04/08 04:42:20;;;;;;;4.80;1.70;;;;;;;7.73;68.78;97748.67;88155;1276;89734;-73
2022/04/08 04:44:32;;;;;;;3.30;1.40;;;;;;;7.73;68.66;97742.55;88047;1277;96141;-74
2022/04/08 04:46:41;;;;;;;4.10;1.20;;;;;;;7.75;68.72;97743.67;88117;1276;78999;-75
2022/04/08 04:48:53;;;;;;;4.40;1.40;;;;;;;7.81;68.49;97747.65;88100;1276;80634;-72
2022/04/08 04:51:02;;;;;;;3.80;1.60;;;;;;;7.86;68.39;97748.45;88127;1276;99775;-74
2022/04/08 04:53:12;;;;;;;4.90;2.00;;;;;;;7.92;68.26;97754.72;88142;1276;89705;-75
2022/04/08 04:55:21;;;;;;;4.10;1.30;;;;;;;7.98;68.13;97755.06;88094;1276;95241;-72
2022/04/08 04:57:34;;;;;;;5.30;1.50;;;;;;;8.05;67.93;97761.55;88063;1277;80859;-73
2022/04/08 04:59:44;;;;;;;4.10;1.10;;;;;;;8.11;67.86;97766.77;88162;1276;82684;-70
2022/04/08 05:01:57;;;;;;;4.30;1.40;;;;;;;8.13;67.76;97771.84;88145;1276;97978;-71
2022/04/08 05:04:07;;;;;;;6.20;1.70;;;;;;;8.13;67.91;97766.23;88152;1276;89648;-73
2022/04/08 05:06:19;;;;;;;5.40;1.30;;;;;;;8.12;67.99;97771.39;88035;1277;94843;-71
2022/04/08 05:08:28;;;;;;;4.60;1.60;;;;;;;8.11;67.98;97778.79;88158;1276;78000;-71
2022/04/08 05:10:38;;;;;;;4.80;1.60;;;;;;;8.09;68.10;97790.84;88125;1276;83231;-72
2022/04/08 05:12:47;;;;;;;4.40;1.20;;;;;;;8.09;68.24;97790.23;88110;1276;98001;-72
2022/04/08 05:14:57;;;;;;;4.50;1.40;;;;;;;8.05;68.76;97794.48;88144;1276;89532;-73
2022/04/08 05:17:08;;;;;;;5.50;2.00;;;;;;;8.00;68.92;97791.60;88141;1276;94741;-72
2022/04/08 05:19:18;;;;;;;4.70;1.50;;;;;;;8.00;69.01;97792.48;88109;1276;81881;-69
2022/04/08 05:21:29;;;;;;;3.30;1.50;;;;;;;8.01;69.21;97791.05;88139;1276;81005;-70
2022/04/08 05:23:38;;;;;;;4.40;1.70;;;;;;;8.04;69.03;97788.73;88138;1276;98417;-71
2022/04/08 05:25:52;;;;;;;4.40;1.50;;;;;;;8.12;68.98;97793.96;88144;1276;88181;-72
2022/04/08 05:28:01;;;;;;;3.80;1.30;;;;;;;8.21;68.86;97792.64;88153;1276;95421;-73
2022/04/08 05:30:16;;;;;;;3.10;1.50;;;;;;;8.34;68.89;97794.34;88136;1276;79461;-71
2022/04/08 05:32:27;;;;;;;3.20;1.40;;;;;;;8.49;68.61;97797.98;88169;1276;82710;-71
2022/04/08 05:34:36;;;;;;;3.80;1.30;;;;;;;8.55;68.45;97803.70;88158;1276;97948;-69
2022/04/08 05:36:49;;;;;;;4.50;1.40;;;;;;;8.52;67.84;97804.27;88155;1276;86030;-70
2022/04/08 05:38:59;;;;;;;5.50;1.40;;;;;;;8.48;67.92;97808.78;88143;1276;95053;-71
2022/04/08 05:41:09;;;;;;;5.90;1.60;;;;;;;8.48;67.85;97813.84;88133;1276;76591;-69
2022/04/08 05:43:22;;;;;;;6.70;1.60;;;;;;;8.47;67.77;97810.36;88156;1276;82647;-74
2022/04/08 05:45:34;;;;;;;5.30;1.50;;;;;;;8.48;67.68;97808.40;88170;1276;99433;-74
2022/04/08 05:47:43;;;;;;;4.10;1.50;;;;;;;8.46;67.48;97812.92;88055;1277;92539;-74
2022/04/08 05:49:59;;;;;;;4.70;1.50;;;;;;;8.40;67.24;97812.92;88146;1276;95872;-71
2022/04/08 05:52:09;;;;;;;3.80;1.10;;;;;;;8.37;67.15;97812.04;88133;1276;80677;-69
2022/04/08 05:54:19;;;;;;;2.90;1.30;;;;;;;8.36;66.98;97813.95;88181;1276;81485;-70
2022/04/08 05:56:28;;;;;;;3.00;1.30;;;;;;;8.34;66.99;97820.91;88148;1276;99743;-72
2022/04/08 05:58:39;;;;;;;3.40;0.90;;;;;;;8.28;67.24;97822.39;88125;1276;88582;-73
2022/04/08 06:00:48;;;;;;;4.20;1.20;;;;;;;8.18;67.84;97827.23;88132;1276;94660;-76
2022/04/08 06:03:01;;;;;;;5.60;1.30;;;;;;;8.07;68.08;97822.20;88118;1276;82686;-69
2022/04/08 06:05:18;;;;;;;3.70;1.60;;;;;;;8.01;68.02;97822.89;88111;1276;82429;-70
2022/04/08 06:07:30;;;;;;;4.10;1.30;;;;;;;7.99;68.41;97826.65;88126;1276;99322;-71
2022/04/08 06:09:39;;;;;;;4.00;1.80;;;;;;;8.01;68.62;97826.91;88143;1276;87952;-71
2022/04/08 06:11:49;;;;;;;54.10;38.30;;;;;;;8.06;68.43;97836.65;88141;1276;94612;-71
2022/04/08 06:14:01;;;;;;;4.80;1.50;;;;;;;8.11;68.56;97837.89;88145;1276;81433;-72
2022/04/08 06:16:10;;;;;;;5.40;1.50;;;;;;;8.18;68.54;97834.14;88156;1276;82602;-71
2022/04/08 06:18:19;;;;;;;3.80;1.10;;;;;;;8.24;68.33;97824.88;88116;1276;100657;-71
2022/04/08 06:20:31;;;;;;;4.30;1.30;;;;;;;8.31;68.14;97828.13;88154;1276;88562;-70
2022/04/08 06:22:41;;;;;;;3.30;1.00;;;;;;;8.29;68.04;97831.30;88147;1276;95027;-71
2022/04/08 06:24:53;;;;;;;4.60;1.40;;;;;;;8.26;67.98;97832.30;88130;1276;77212;-71
2022/04/08 06:27:02;;;;;;;2.60;1.30;;;;;;;8.23;67.91;97834.21;88158;1276;82813;-71
2022/04/08 06:29:11;;;;;;;5.90;1.30;;;;;;;8.21;67.67;97839.92;88187;1276;99569;-71
2022/04/08 06:31:21;;;;;;;4.60;1.30;;;;;;;8.15;67.65;97855.13;88140;1276;87725;-72
2022/04/08 06:33:30;;;;;;;4.70;1.30;;;;;;;8.11;68.12;97886.49;88152;1276;94442;-72
2022/04/08 06:35:42;;;;;;;4.20;1.20;;;;;;;8.02;68.90;97912.63;88139;1276;78448;-70
2022/04/08 06:37:58;;;;;;;4.40;1.10;;;;;;;7.83;69.76;97912.17;88132;1276;80696;-71
2022/04/08 06:40:11;;;;;;;3.60;0.80;;;;;;;7.68;70.13;97905.01;88125;1276;99622;-73
2022/04/08 06:42:20;;;;;;;3.00;0.90;;;;;;;7.60;70.40;97910.45;88167;1276;89881;-75
2022/04/08 06:44:29;;;;;;;2.80;0.90;;;;;;;7.61;70.54;97912.15;88126;1276;95956;-72
2022/04/08 06:46:38;;;;;;;2.70;0.80;;;;;;;7.75;71.02;97913.66;88112;1275;82318;-72
2022/04/08 06:48:48;;;;;;;3.10;0.90;;;;;;;8.14;71.71;97919.04;88078;1277;81450;-71
2022/04/08 06:51:04;;;;;;;2.90;1.00;;;;;;;8.82;71.57;97914.34;88096;1277;98446;-68
2022/04/08 06:53:13;;;;;;;3.00;1.10;;;;;;;9.43;71.14;97911.84;88154;1276;87170;-74
2022/04/08 06:55:24;;;;;;;2.80;1.00;;;;;;;10.13;70.89;97920.46;88174;1275;95592;-76
2022/04/08 06:57:33;;;;;;;1.90;0.90;;;;;;;10.84;69.53;97923.25;88123;1276;78150;-75
2022/04/08 06:59:43;;;;;;;3.70;1.10;;;;;;;10.63;67.94;97924.34;88149;1276;82916;-73
2022/04/08 07:01:52;;;;;;;4.30;1.50;;;;;;;10.39;68.06;97928.22;88162;1276;98601;-74
2022/04/08 07:04:01;;;;;;;3.40;1.40;;;;;;;10.28;68.26;97931.94;88120;1276;87152;-72
2022/04/08 07:06:10;;;;;;;4.10;1.40;;;;;;;10.72;68.91;97931.30;88140;1276;95457;-71
2022/04/08 07:08:19;;;;;;;3.80;1.60;;;;;;;11.96;69.15;97927.50;88182;1276;78094;-71
2022/04/08 07:10:28;;;;;;;4.50;1.50;;;;;;;12.58;66.37;97926.75;88124;1276;81378;-71
2022/04/08 07:12:38;;;;;;;4.70;1.30;;;;;;;12.33;65.07;97927.30;88162;1276;100088;-70
2022/04/08 07:14:48;;;;;;;3.60;1.60;;;;;;;11.90;64.72;97929.73;88131;1276;88958;-70
2022/04/08 07:16:57;;;;;;;2.60;1.50;;;;;;;11.55;64.60;97933.23;88161;1276;94791;-71
2022/04/08 07:19:06;;;;;;;2.60;1.40;;;;;;;11.27;64.80;97938.45;88036;1277;80342;-71
2022/04/08 07:21:17;;;;;;;5.50;1.70;;;;;;;11.06;64.67;97952.80;88054;1277;81308;-70
2022/04/08 07:23:26;;;;;;;4.80;1.90;;;;;;;10.86;64.72;97953.59;88143;1276;98760;-71
2022/04/08 07:25:36;;;;;;;4.10;1.60;;;;;;;11.14;65.13;97956.19;88155;1276;87773;-70
2022/04/08 07:27:51;;;;;;;3.50;1.10;;;;;;;11.24;64.40;97955.98;88141;1276;94240;-71
2022/04/08 07:30:04;;;;;;;3.40;1.40;;;;;;;11.00;64.04;97968.13;88125;1276;78721;-70
2022/04/08 07:32:20;;;;;;;3.10;1.20;;;;;;;11.31;64.73;97980.77;88145;1276;81267;-72
2022/04/08 07:34:29;;;;;;;3.90;1.30;;;;;;;11.48;63.13;97976.37;88137;1276;99845;-75
2022/04/08 07:36:38;;;;;;;3.90;1.50;;;;;;;11.32;62.82;97983.92;88136;1276;89314;-71
2022/04/08 07:38:47;;;;;;;2.90;1.20;;;;;;;11.12;62.79;97987.36;88134;1276;95647;-74
2022/04/08 07:40:57;;;;;;;4.00;1.40;;;;;;;11.00;62.73;97994.55;88151;1276;81451;-74
2022/04/08 07:43:07;;;;;;;3.40;1.10;;;;;;;10.99;62.95;98007.62;88160;1276;81138;-73
2022/04/08 07:45:17;;;;;;;2.90;1.40;;;;;;;11.03;63.01;98016.10;88152;1276;99654;-71
2022/04/08 07:47:31;;;;;;;3.30;1.20;;;;;;;11.46;63.68;98019.27;88143;1276;88143;-72
2022/04/08 07:49:41;;;;;;;2.50;1.10;;;;;;;13.08;64.14;98012.66;88193;1276;95136;-72
2022/04/08 07:51:51;;;;;;;2.00;1.30;;;;;;;15.17;62.41;98014.48;88166;1276;78941;-74
2022/04/08 07:53:59;;;;;;;3.30;1.30;;;;;;;16.29;58.92;98006.98;88178;1276;83355;-73
2022/04/08 07:56:08;;;;;;;2.10;1.00;;;;;;;16.57;57.28;98009.83;88139;1276;98520;-73
2022/04/08 07:58:17;;;;;;;3.30;1.10;;;;;;;16.11;56.46;98025.16;88143;1276;86721;-72
2022/04/08 08:00:31;;;;;;;2.80;1.20;;;;;;;16.06;55.54;98028.62;88139;1276;95390;-73
2022/04/08 08:02:40;;;;;;;1.90;1.10;;;;;;;15.61;54.17;98033.27;88161;1276;78032;-73
2022/04/08 08:04:50;;;;;;;3.20;1.10;;;;;;;14.68;54.41;98037.80;88170;1276;83424;-74
2022/04/08 08:07:02;;;;;;;2.30;1.00;;;;;;;15.34;56.22;98047.66;88149;1276;98266;-72
2022/04/08 08:09:11;;;;;;;2.60;1.10;;;;;;;16.07;54.85;98053.84;88170;1276;87661;-72
2022/04/08 08:11:23;;;;;;;1.60;1.10;;;;;;;16.28;54.02;98057.99;88157;1276;95467;-72
2022/04/08 08:13:35;;;;;;;1.80;1.10;;;;;;;16.80;53.95;98053.09;88154;1276;78527;-71
2022/04/08 08:15:44;;;;;;;2.80;1.10;;;;;;;17.69;53.61;98056.29;88147;1276;83229;-72
2022/04/08 08:17:58;;;;;;;2.60;1.00;;;;;;;18.65;52.94;98054.41;88138;1276;98367;-73
2022/04/08 08:20:09;;;;;;;3.80;1.40;;;;;;;19.21;51.69;98053.30;88090;1277;89990;-75
2022/04/08 08:22:22;;;;;;;2.40;1.00;;;;;;;19.36;50.67;98059.88;88161;1276;95866;-73
2022/04/08 08:24:31;;;;;;;2.10;1.00;;;;;;;19.24;48.77;98058.88;88159;1276;79653;-72
2022/04/08 08:26:43;;;;;;;1.80;0.80;;;;;;;18.68;47.31;98067.52;88167;1276;81811;-72
2022/04/08 08:28:53;;;;;;;1.90;0.90;;;;;;;17.45;46.98;98075.02;88172;1276;97721;-72
2022/04/08 08:31:04;;;;;;;1.60;0.80;;;;;;;16.74;48.51;98082.60;88145;1276;86751;-73
2022/04/08 08:33:13;;;;;;;1.90;0.90;;;;;;;16.81;48.62;98087.11;88177;1276;93481;-73
2022/04/08 08:35:26;;;;;;;2.10;1.10;;;;;;;17.55;48.44;98079.79;88146;1276;79506;-71
2022/04/08 08:37:36;;;;;;;2.80;1.00;;;;;;;17.75;47.75;98085.20;88061;1277;82168;-71
2022/04/08 08:39:45;;;;;;;1.40;1.00;;;;;;;17.58;46.91;98087.78;88144;1276;100114;-74
2022/04/08 08:41:55;;;;;;;1.40;0.90;;;;;;;17.21;47.01;98093.29;88157;1276;88765;-73
2022/04/08 08:44:04;;;;;;;3.10;1.30;;;;;;;17.87;47.44;98092.95;88177;1276;94500;-71
2022/04/08 08:46:16;;;;;;;2.30;1.20;;;;;;;17.93;45.25;98085.39;88133;1276;79178;-72
2022/04/08 08:48:25;;;;;;;2.80;1.50;;;;;;;18.36;46.70;98097.86;88162;1276;80917;-73
2022/04/08 08:50:36;;;;;;;1.70;0.90;;;;;;;19.40;46.31;98103.51;88157;1276;98653;-73
2022/04/08 08:52:49;;;;;;;2.40;1.00;;;;;;;19.26;44.14;98094.72;88183;1276;89232;-73
2022/04/08 08:55:05;;;;;;;3.70;1.60;;;;;;;18.78;43.85;98102.05;88167;1276;96175;-72
2022/04/08 08:57:15;;;;;;;2.40;1.30;;;;;;;18.27;43.86;98114.11;88177;1276;81099;-73
2022/04/08 08:59:24;;;;;;;1.20;0.90;;;;;;;17.91;44.37;98117.60;88082;1277;83646;-72
2022/04/08 09:01:32;;;;;;;3.40;1.10;;;;;;;17.42;43.37;98124.14;88150;1276;99878;-73
2022/04/08 09:03:44;;;;;;;3.40;1.20;;;;;;;16.80;44.69;98132.92;88191;1276;88648;-73
2022/04/08 09:05:53;;;;;;;2.50;1.00;;;;;;;16.31;45.07;98133.08;88149;1276;94516;-71
2022/04/08 09:08:08;;;;;;;2.20;1.00;;;;;;;15.76;45.40;98134.26;88138;1276;78240;-72
2022/04/08 09:10:17;;;;;;;2.60;1.00;;;;;;;15.39;45.68;98143.86;88162;1276;83452;-73
2022/04/08 09:12:29;;;;;;;2.50;1.40;;;;;;;15.50;46.09;98142.38;88178;1276;100218;-71
2022/04/08 09:14:39;;;;;;;2.50;1.10;;;;;;;16.21;46.02;98139.35;88168;1276;89309;-74
2022/04/08 09:16:47;;;;;;;2.10;1.20;;;;;;;16.98;45.92;98143.85;88135;1276;95897;-72
2022/04/08 09:18:57;;;;;;;2.30;0.80;;;;;;;17.32;45.18;98141.30;88176;1276;78658;-72
2022/04/08 09:21:06;;;;;;;4.80;1.10;;;;;;;17.78;44.60;98135.09;88188;1276;80077;-72
2022/04/08 09:23:21;;;;;;;2.50;1.00;;;;;;;17.58;43.57;98137.20;88135;1275;98867;-72
2022/04/08 09:25:30;;;;;;;2.00;0.90;;;;;;;16.97;43.02;98151.17;88169;1276;87916;-72
2022/04/08 09:27:43;;;;;;;1.90;0.90;;;;;;;16.28;43.41;98162.58;88152;1276;94006;-72
2022/04/08 09:29:58;;;;;;;2.20;1.20;;;;;;;15.73;43.62;98159.42;88057;1277;80710;-71
2022/04/08 09:32:13;;;;;;;3.30;1.10;;;;;;;15.37;44.61;98165.95;88112;1277;83247;-72
2022/04/08 09:34:26;;;;;;;1.50;1.00;;;;;;;15.16;45.28;98170.00;88160;1276;100010;-72
2022/04/08 09:36:41;;;;;;;1.80;0.90;;;;;;;14.99;45.69;98169.95;88141;1276;87970;-72
2022/04/08 09:38:53;;;;;;;3.00;1.00;;;;;;;15.02;46.23;98173.42;88047;1277;94863;-74
2022/04/08 09:41:10;;;;;;;1.60;0.90;;;;;;;15.08;46.41;98178.48;88031;1279;80800;-72
2022/04/08 09:43:33;;;;;;;2.30;1.10;;;;;;;14.72;46.08;98179.71;88167;1276;83096;-71
2022/04/08 09:45:44;;;;;;;2.50;1.20;;;;;;;14.65;46.63;98183.36;88173;1276;99203;-72
2022/04/08 09:47:54;;;;;;;2.30;1.10;;;;;;;14.81;47.18;98181.27;88170;1276;87938;-72
2022/04/08 09:50:07;;;;;;;1.80;1.10;;;;;;;15.14;47.38;98181.76;88163;1276;95983;-71
2022/04/08 09:52:17;;;;;;;3.70;1.00;;;;;;;15.27;46.64;98184.17;88131;1276;78882;-70
2022/04/08 09:54:32;;;;;;;2.60;1.00;;;;;;;14.96;46.75;98189.36;88177;1276;81514;-72
2022/04/08 09:56:46;;;;;;;2.50;1.10;;;;;;;14.88;47.22;98190.24;88179;1276;98018;-71
2022/04/08 09:59:00;;;;;;;3.70;1.30;;;;;;;14.72;46.97;98200.86;88199;1276;87190;-74
2022/04/08 10:01:13;;;;;;;2.20;1.30;;;;;;;14.51;47.05;98198.21;88149;1276;95292;-71
2022/04/08 10:03:22;;;;;;;3.00;1.10;;;;;;;14.45;47.52;98198.65;88164;1276;80014;-72
2022/04/08 10:05:34;;;;;;;2.40;1.20;;;;;;;14.51;47.71;98205.83;88159;1276;81013;-72
2022/04/08 10:07:46;;;;;;;1.90;1.20;;;;;;;14.64;47.90;98212.27;88146;1276;100167;-71
2022/04/08 10:10:07;;;;;;;2.90;1.50;;;;;;;14.67;48.07;98208.09;88182;1276;87971;-72
2022/04/08 10:12:25;;;;;;;2.80;1.10;;;;;;;14.48;47.90;98218.41;88142;1276;94680;-73
2022/04/08 10:14:45;;;;;;;1.40;1.10;;;;;;;14.16;48.00;98216.43;88115;1276;78145;-72
2022/04/08 10:16:56;;;;;;;2.80;1.20;;;;;;;13.86;47.95;98212.07;88162;1276;83142;-71
2022/04/08 10:19:08;;;;;;;1.50;0.90;;;;;;;13.58;48.38;98219.10;88155;1276;100685;-72
2022/04/08 10:21:18;;;;;;;3.80;1.30;;;;;;;13.47;48.71;98223.60;88093;1278;88251;-72